Lakefield, Minnesota
Current Conditions -  °F | °C
As of 1:53 AM on Friday 24 Oct 2014 (Local Time) from KMJQ Reporting Station
Clear Clear  
Wind Chill: 52°   Ceiling: Unl
Heat Index: 52°   Visibility: 10mi
Dew Point: 41°   Wind: 7mph
Humidity: 67%   Direction: 170°S
Pressure: 29.95"   Gusts: NA
Location:  43.68°N, 95.17°W
Report Text: KMJQ 240653Z AUTO 17006KT 10SM CLR 11/05 A2995 RMK AO2
Loading
Personal Weather Stations






























Interactive Weather Map
Tropical Storm Tracking
New forecast layout! Learn more

10-Day Weather Forecast

Advertisements
Track Severe Weather on mobile